createdAt,value
2018-01-04T00:00:11.176Z,4.30
2018-01-04T00:02:39.499Z,2.60
2018-01-04T00:05:07.848Z,2.90
2018-01-04T00:07:35.378Z,2.70
2018-01-04T00:10:02.918Z,2.73
2018-01-04T00:12:30.476Z,2.90
2018-01-04T00:14:58.017Z,3.03
2018-01-04T00:17:26.378Z,5.30
2018-01-04T00:19:53.923Z,2.83
2018-01-04T00:22:21.449Z,3.00
2018-01-04T00:24:48.999Z,2.67
2018-01-04T00:27:16.542Z,3.83
2018-01-04T00:29:44.883Z,3.07
2018-01-04T00:32:12.402Z,3.30
2018-01-04T00:34:39.947Z,3.60
2018-01-04T00:37:07.460Z,3.17
2018-01-04T00:39:34.977Z,2.90
2018-01-04T00:42:02.517Z,3.27
2018-01-04T00:44:30.803Z,3.10
2018-01-04T00:46:58.343Z,4.17
2018-01-04T00:49:26.636Z,3.20
2018-01-04T00:51:54.174Z,3.87
2018-01-04T00:54:21.699Z,4.00
2018-01-04T00:56:49.238Z,3.57
2018-01-04T00:59:16.782Z,2.53
2018-01-04T01:01:45.078Z,4.23
2018-01-04T01:04:12.598Z,2.63
2018-01-04T01:06:40.912Z,4.00
2018-01-04T01:09:08.431Z,4.27
2018-01-04T01:11:36.730Z,2.70
2018-01-04T01:14:04.247Z,3.70
2018-01-04T01:16:31.820Z,3.30
2018-01-04T01:18:59.331Z,2.70
2018-01-04T01:21:26.841Z,4.20
2018-01-04T01:23:54.381Z,3.60
2018-01-04T01:26:21.902Z,2.87
2018-01-04T01:28:49.494Z,2.53
2018-01-04T01:31:17.020Z,2.53
2018-01-04T01:33:44.553Z,3.40
2018-01-04T01:36:12.842Z,2.73
2018-01-04T01:38:40.383Z,2.87
2018-01-04T01:41:07.935Z,2.03
2018-01-04T01:43:35.492Z,3.43
2018-01-04T01:46:03.008Z,2.87
2018-01-04T01:48:30.526Z,3.23
2018-01-04T01:50:58.846Z,2.03
2018-01-04T01:53:26.367Z,3.10
2018-01-04T01:55:54.680Z,2.37
2018-01-04T01:58:22.199Z,3.33
2018-01-04T02:00:50.502Z,2.43
2018-01-04T02:03:18.023Z,2.47
2018-01-04T02:05:45.559Z,2.80
2018-01-04T02:08:13.081Z,3.10
2018-01-04T02:10:40.620Z,3.17
2018-01-04T02:13:08.900Z,2.73
2018-01-04T02:15:37.212Z,2.67
2018-01-04T02:18:16.514Z,2.80
2018-01-04T02:23:52.354Z,2.80
2018-01-04T02:26:31.817Z,2.83
2018-01-04T02:29:02.120Z,2.43
2018-01-04T02:34:55.583Z,3.27
2018-01-04T02:37:34.740Z,2.80
2018-01-04T02:40:14.194Z,3.00
2018-01-04T02:42:53.526Z,2.80
2018-01-04T02:45:47.790Z,2.90
2018-01-04T02:48:15.326Z,2.40
2018-01-04T02:50:42.853Z,2.87
2018-01-04T02:53:11.154Z,2.90
2018-01-04T02:55:38.677Z,3.00
2018-01-04T02:58:06.197Z,3.27
2018-01-04T03:00:33.738Z,3.03
2018-01-04T03:03:01.253Z,3.10
2018-01-04T03:05:28.790Z,3.40
2018-01-04T03:07:56.309Z,3.20
2018-01-04T03:10:23.854Z,3.13
2018-01-04T03:12:52.133Z,3.27
2018-01-04T03:15:20.437Z,2.53
2018-01-04T03:17:47.958Z,3.93
2018-01-04T03:20:16.270Z,4.40
2018-01-04T03:22:49.400Z,3.50
2018-01-04T03:25:23.485Z,3.87
2018-01-04T03:27:56.689Z,3.83
2018-01-04T03:30:29.827Z,3.00
2018-01-04T03:33:03.746Z,3.50
2018-01-04T03:35:37.725Z,3.40
2018-01-04T03:38:10.900Z,3.83
2018-01-04T03:40:44.058Z,3.83
2018-01-04T03:43:17.215Z,2.13
2018-01-04T03:45:50.519Z,3.10
2018-01-04T03:48:23.652Z,3.50
2018-01-04T03:50:56.929Z,2.93
2018-01-04T03:56:30.815Z,2.87
2018-01-04T03:59:03.926Z,5.73
2018-01-04T04:01:37.942Z,4.50
2018-01-04T04:07:07.786Z,3.97
2018-01-04T04:09:36.070Z,2.50
2018-01-04T04:12:03.609Z,3.27
2018-01-04T04:14:31.902Z,3.60
2018-01-04T04:17:00.206Z,3.80
2018-01-04T04:19:27.721Z,3.67
2018-01-04T04:21:55.256Z,4.20
2018-01-04T04:24:22.778Z,3.73
2018-01-04T04:26:50.322Z,3.40
2018-01-04T04:29:17.847Z,3.77
2018-01-04T04:31:45.370Z,4.00
2018-01-04T04:34:12.906Z,2.70
2018-01-04T04:36:40.427Z,3.07
2018-01-04T04:39:07.965Z,3.40
2018-01-04T04:41:35.482Z,5.13
2018-01-04T04:44:03.022Z,3.60
2018-01-04T04:46:31.305Z,2.90
2018-01-04T04:48:59.615Z,3.23
2018-01-04T04:51:27.129Z,2.73
2018-01-04T04:53:54.666Z,2.97
2018-01-04T04:56:22.190Z,2.30
2018-01-04T04:58:49.736Z,2.27
2018-01-04T05:01:17.254Z,1.83
2018-01-04T05:03:44.770Z,2.90
2018-01-04T05:06:12.411Z,2.33
2018-01-04T05:08:40.689Z,2.90
2018-01-04T05:11:08.986Z,2.30
2018-01-04T05:13:36.505Z,2.30
2018-01-04T05:16:04.039Z,4.50
2018-01-04T05:18:31.565Z,2.00
2018-01-04T05:20:59.105Z,2.03
2018-01-04T05:23:27.386Z,2.50
2018-01-04T05:25:54.922Z,2.30
2018-01-04T05:28:22.438Z,2.33
2018-01-04T05:30:49.978Z,3.07
2018-01-04T05:33:17.498Z,3.20
2018-01-04T05:35:45.018Z,2.77
2018-01-04T05:38:12.553Z,2.17
2018-01-04T05:40:40.065Z,2.07
2018-01-04T05:43:07.606Z,3.10
2018-01-04T05:45:35.118Z,3.10
2018-01-04T05:48:02.654Z,2.13
2018-01-04T05:50:30.166Z,2.30
2018-01-04T05:52:57.693Z,2.60
2018-01-04T05:55:25.977Z,2.00
2018-01-04T05:57:53.538Z,5.20
2018-01-04T06:00:21.061Z,5.50
2018-01-04T06:02:48.573Z,1.73
2018-01-04T06:05:16.114Z,2.07
2018-01-04T06:07:44.393Z,2.47
2018-01-04T06:10:12.690Z,2.80
2018-01-04T06:12:40.210Z,3.23
2018-01-04T06:15:08.506Z,2.70
2018-01-04T06:17:36.784Z,2.80
2018-01-04T06:20:04.317Z,2.77
2018-01-04T06:22:31.833Z,2.50
2018-01-04T06:24:59.370Z,3.20
2018-01-04T06:27:26.976Z,2.30
2018-01-04T06:29:54.533Z,3.70
2018-01-04T06:32:22.094Z,2.63
2018-01-04T06:34:49.737Z,3.60
2018-01-04T06:37:17.277Z,3.30
2018-01-04T06:39:44.793Z,3.20
2018-01-04T06:42:12.325Z,2.70
2018-01-04T06:44:39.841Z,4.10
2018-01-04T06:47:08.142Z,2.90
2018-01-04T06:49:35.666Z,3.30
2018-01-04T06:52:03.969Z,3.03
2018-01-04T06:54:31.489Z,3.93
2018-01-04T06:56:59.034Z,3.30
2018-01-04T06:59:26.545Z,4.70
2018-01-04T07:01:54.065Z,3.57
2018-01-04T07:04:21.598Z,4.47
2018-01-04T07:06:49.117Z,2.87
2018-01-04T07:09:17.420Z,3.63
2018-01-04T07:11:44.938Z,5.03
2018-01-04T07:14:12.473Z,3.00
2018-01-04T07:16:39.989Z,3.03
2018-01-04T07:19:07.525Z,4.30
2018-01-04T07:21:35.809Z,3.80
2018-01-04T07:24:04.117Z,3.53
2018-01-04T07:26:31.629Z,4.70
2018-01-04T07:28:59.170Z,3.70
2018-01-04T07:31:26.685Z,4.47
2018-01-04T07:33:54.230Z,5.50
2018-01-04T07:36:21.770Z,5.27
2018-01-04T07:38:49.982Z,4.57
2018-01-04T07:41:17.526Z,4.10
2018-01-04T07:43:45.815Z,3.60
2018-01-04T07:46:13.358Z,4.83
2018-01-04T07:48:41.637Z,3.57
2018-01-04T07:51:09.937Z,3.40
2018-01-04T07:53:37.453Z,4.97
2018-01-04T07:56:04.989Z,3.73
2018-01-04T07:58:33.265Z,3.57
2018-01-04T08:01:00.798Z,3.90
2018-01-04T08:03:28.315Z,4.63
2018-01-04T08:05:55.861Z,3.47
2018-01-04T08:08:23.390Z,4.47
2018-01-04T08:10:50.913Z,4.60
2018-01-04T08:13:18.448Z,3.57
2018-01-04T08:15:45.970Z,3.90
2018-01-04T08:18:13.515Z,4.40
2018-01-04T08:20:41.042Z,2.60
2018-01-04T08:23:09.338Z,9.07
2018-01-04T08:25:36.853Z,3.57
2018-01-04T08:28:04.391Z,3.43
2018-01-04T08:30:31.906Z,3.60
2018-01-04T08:33:00.185Z,3.83
2018-01-04T08:35:28.493Z,3.43
2018-01-04T08:37:56.009Z,2.90
2018-01-04T08:40:24.317Z,3.00
2018-01-04T08:42:51.837Z,4.03
2018-01-04T08:45:19.378Z,4.10
2018-01-04T08:47:46.901Z,4.80
2018-01-04T08:50:14.443Z,4.07
2018-01-04T08:52:41.966Z,2.43
2018-01-04T08:55:09.572Z,2.83
2018-01-04T08:57:37.092Z,2.77
2018-01-04T09:00:04.618Z,2.27
2018-01-04T09:02:32.150Z,3.47
2018-01-04T09:04:59.675Z,3.60
2018-01-04T09:07:27.204Z,3.23
2018-01-04T09:09:54.714Z,2.13
2018-01-04T09:12:23.010Z,2.47
2018-01-04T09:14:50.526Z,2.47
2018-01-04T09:17:18.062Z,2.23
2018-01-04T09:19:45.576Z,3.10
2018-01-04T09:22:13.888Z,3.00
2018-01-04T09:24:41.397Z,3.03
2018-01-04T09:27:09.678Z,3.27
2018-01-04T09:29:37.977Z,3.27
2018-01-04T09:32:05.497Z,3.73
2018-01-04T09:34:33.037Z,2.87
2018-01-04T09:37:00.573Z,3.53
2018-01-04T09:39:28.115Z,3.23
2018-01-04T09:41:55.640Z,2.80
2018-01-04T09:44:23.182Z,3.40
2018-01-04T09:46:50.698Z,2.60
2018-01-04T09:49:18.234Z,2.47
2018-01-04T09:51:45.750Z,3.10
2018-01-04T09:54:13.287Z,3.33
2018-01-04T09:56:40.806Z,3.67
2018-01-04T09:59:08.315Z,3.00
2018-01-04T10:01:35.846Z,2.70
2018-01-04T10:04:03.383Z,3.13
2018-01-04T10:06:30.925Z,3.50
2018-01-04T10:08:58.450Z,3.10
2018-01-04T10:11:25.993Z,2.90
2018-01-04T10:13:54.275Z,2.80
2018-01-04T10:16:22.578Z,2.17
2018-01-04T10:18:50.094Z,2.40
2018-01-04T10:21:17.633Z,2.33
2018-01-04T10:23:45.151Z,2.50
2018-01-04T10:26:12.673Z,3.00
2018-01-04T10:28:40.209Z,3.37
2018-01-04T10:31:07.725Z,3.00
2018-01-04T13:59:48.081Z,0.90
2018-01-04T14:02:17.598Z,1.13
2018-01-04T14:04:47.979Z,1.10
2018-01-04T14:10:10.466Z,1.40
2018-01-04T14:12:42.321Z,1.30
2018-01-04T14:15:17.197Z,1.30
2018-01-04T14:18:02.947Z,1.30
2018-01-04T14:20:38.694Z,1.40
2018-01-04T14:23:13.706Z,1.50
2018-01-04T14:25:45.387Z,1.90
2018-01-04T14:28:17.460Z,1.77
2018-01-04T14:33:35.309Z,2.80
2018-01-04T14:36:07.516Z,4.27
2018-01-04T14:38:41.884Z,2.77
2018-01-04T14:43:57.131Z,4.63
2018-01-04T14:46:30.557Z,13.27
2018-01-04T14:49:00.352Z,6.23
2018-01-04T14:51:33.099Z,3.73
2018-01-04T14:57:00.660Z,15.13
2018-01-04T14:59:34.269Z,8.43
2018-01-04T15:02:09.129Z,8.77
2018-01-04T15:04:40.266Z,3.70
2018-01-04T15:07:11.887Z,3.20
2018-01-04T15:09:48.501Z,2.77
2018-01-04T15:12:20.324Z,2.97
2018-01-04T15:14:52.808Z,4.20
2018-01-04T15:22:42.514Z,3.97
2018-01-04T15:25:14.828Z,9.17
2018-01-04T15:27:50.642Z,4.70
2018-01-04T15:30:21.981Z,2.47
2018-01-04T15:32:56.318Z,3.30
2018-01-04T15:35:28.792Z,2.50
2018-01-04T15:38:06.930Z,2.30
2018-01-04T15:40:38.752Z,3.40
2018-01-04T15:45:47.493Z,3.17
2018-01-04T15:48:21.534Z,2.83
2018-01-04T15:50:52.649Z,2.00
2018-01-04T15:53:24.328Z,2.83
2018-01-04T15:55:57.216Z,2.03
2018-01-04T15:58:29.683Z,2.37
2018-01-04T16:01:03.193Z,2.30
2018-01-04T16:03:35.189Z,2.00
2018-01-04T16:06:04.657Z,2.77
2018-01-04T16:08:39.799Z,2.87
2018-01-04T16:11:09.966Z,2.50
2018-01-04T16:13:42.891Z,2.50
2018-01-04T16:16:28.563Z,2.33
2018-01-04T16:23:55.187Z,3.27
2018-01-04T16:26:28.006Z,3.60
2018-01-04T16:43:10.097Z,5.43
2018-01-04T16:45:52.745Z,4.70
2018-01-04T16:48:34.746Z,10.20
2018-01-04T16:51:15.438Z,5.90
2018-01-04T16:56:47.576Z,5.60
2018-01-04T16:59:22.101Z,6.87
2018-01-04T17:04:36.493Z,15.20
2018-01-04T17:07:05.535Z,13.13
2018-01-04T17:09:34.706Z,11.13
2018-01-04T17:12:03.265Z,7.70
2018-01-04T17:14:31.712Z,7.47
2018-01-04T17:17:00.954Z,11.07
2018-01-04T17:19:28.506Z,5.37
2018-01-04T17:21:56.050Z,5.77
2018-01-04T17:24:23.660Z,5.47
2018-01-04T17:26:51.311Z,7.00
2018-01-04T17:29:18.835Z,9.03
2018-01-04T17:31:47.149Z,9.07
2018-01-04T17:34:14.721Z,8.77
2018-01-04T17:36:43.086Z,12.20
2018-01-04T17:39:10.606Z,14.00
2018-01-04T17:41:38.243Z,11.80
2018-01-04T17:44:07.000Z,10.00
2018-01-04T17:46:34.586Z,11.20
2018-01-04T17:49:03.731Z,9.73
2018-01-04T17:51:31.246Z,10.50
2018-01-04T17:54:03.273Z,13.70
2018-01-04T17:56:32.630Z,13.90
2018-01-04T17:59:01.355Z,18.07
2018-01-04T18:01:31.093Z,23.20
2018-01-04T18:03:59.115Z,19.67
2018-01-04T18:06:33.524Z,13.80
2018-01-04T18:09:03.622Z,16.30
2018-01-04T18:11:33.752Z,18.40
2018-01-04T18:14:02.140Z,19.80
2018-01-04T18:16:31.214Z,16.37
2018-01-04T18:19:04.089Z,15.23
2018-01-04T18:21:34.499Z,15.60
2018-01-04T18:24:05.261Z,20.07
2018-01-04T18:26:35.821Z,24.63
2018-01-04T18:29:05.149Z,24.10
2018-01-04T18:31:32.983Z,27.97
2018-01-04T18:34:01.930Z,23.20
2018-01-04T18:39:11.000Z,19.77
2018-01-04T18:41:41.795Z,17.47
2018-01-04T18:44:15.405Z,17.30
2018-01-04T18:46:46.029Z,15.47
2018-01-04T18:49:17.292Z,15.40
2018-01-04T18:51:46.784Z,12.70
2018-01-04T18:54:24.189Z,10.20
2018-01-04T18:57:01.298Z,13.60
2018-01-04T18:59:31.789Z,13.97
2018-01-04T19:02:06.231Z,13.57
2018-01-04T19:07:37.381Z,22.70
2018-01-04T19:10:05.672Z,24.50
2018-01-04T19:12:40.505Z,16.83
2018-01-04T19:15:09.866Z,14.90
2018-01-04T19:17:38.366Z,12.90
2018-01-04T19:20:06.812Z,11.03
2018-01-04T19:22:34.446Z,9.63
2018-01-04T19:25:03.088Z,9.93
2018-01-04T19:27:31.654Z,9.10
2018-01-04T19:30:13.649Z,10.67
2018-01-04T19:32:46.824Z,12.50
2018-01-04T19:35:20.308Z,11.67
2018-01-04T19:37:55.731Z,12.07
2018-01-04T19:40:27.276Z,13.27
2018-01-04T19:42:58.258Z,11.63
2018-01-04T19:45:35.095Z,20.87
2018-01-04T19:48:04.534Z,23.73
2018-01-04T19:50:33.447Z,27.00
2018-01-04T19:53:07.600Z,30.83
2018-01-04T19:55:37.633Z,31.50
2018-01-04T19:58:07.844Z,31.10
2018-01-04T20:00:38.852Z,27.03
2018-01-04T20:03:07.518Z,20.10
2018-01-04T20:05:41.966Z,17.30
2018-01-04T20:08:11.110Z,13.77
2018-01-04T20:10:45.500Z,12.17
2018-01-04T20:13:14.392Z,9.30
2018-01-04T20:15:50.652Z,11.27
2018-01-04T20:18:21.736Z,9.80
2018-01-04T20:20:53.475Z,8.03
2018-01-04T20:23:24.761Z,9.27
2018-01-04T20:25:54.732Z,7.90
2018-01-04T20:28:26.223Z,10.17
2018-01-04T20:30:54.600Z,28.07
2018-01-04T20:33:26.115Z,44.90
2018-01-04T20:36:03.291Z,23.37
2018-01-04T20:38:33.535Z,24.23
2018-01-04T20:43:49.001Z,29.00
2018-01-04T20:49:00.732Z,13.03
2018-01-04T20:51:31.224Z,14.27
2018-01-04T20:54:04.822Z,15.57
2018-01-04T20:56:37.437Z,12.70
2018-01-04T20:59:07.463Z,14.43
2018-01-04T21:01:36.983Z,14.93
2018-01-04T21:04:10.299Z,9.70
2018-01-04T21:06:38.708Z,12.50
2018-01-04T21:09:08.075Z,11.37
2018-01-04T21:14:38.970Z,11.50
2018-01-04T21:17:07.751Z,7.50
2018-01-04T21:19:40.618Z,6.00
2018-01-04T21:22:11.711Z,5.87
2018-01-04T21:24:48.788Z,5.30
2018-01-04T21:27:17.492Z,2.73
2018-01-04T21:29:45.555Z,3.53
2018-01-04T21:32:18.506Z,4.00
2018-01-04T21:34:46.202Z,2.73
2018-01-04T21:37:19.540Z,3.53
2018-01-04T21:39:51.971Z,3.73
2018-01-04T21:42:23.337Z,3.30
2018-01-04T21:44:55.909Z,2.60
2018-01-04T21:47:24.478Z,2.43
2018-01-04T21:49:57.058Z,2.40
2018-01-04T21:52:27.053Z,2.90
2018-01-04T21:54:56.219Z,3.00
2018-01-04T21:57:25.427Z,4.90
2018-01-04T21:59:58.242Z,2.57
2018-01-04T22:02:27.936Z,2.60
2018-01-04T22:04:55.622Z,3.93
2018-01-04T22:07:24.074Z,3.33
2018-01-04T22:12:26.324Z,2.50
2018-01-04T22:14:56.936Z,2.03
2018-01-04T22:20:01.755Z,2.60
2018-01-04T22:22:30.915Z,2.00
2018-01-04T22:24:58.601Z,2.73
2018-01-04T22:27:26.775Z,2.87
2018-01-04T22:29:54.430Z,1.67
2018-01-04T22:32:22.200Z,2.27
2018-01-04T22:34:50.132Z,2.47
2018-01-04T22:37:20.865Z,2.00
2018-01-04T22:39:51.289Z,3.03
2018-01-04T22:42:21.626Z,1.90
2018-01-04T22:44:50.754Z,2.90
2018-01-04T22:47:20.695Z,3.00
2018-01-04T22:49:49.962Z,2.40
2018-01-04T22:52:20.051Z,1.87
2018-01-04T22:54:48.893Z,3.80
2018-01-04T22:57:17.340Z,2.67
2018-01-04T22:59:47.789Z,2.30
2018-01-04T23:05:07.794Z,2.30
2018-01-04T23:07:38.546Z,2.30
2018-01-04T23:10:07.026Z,3.40
2018-01-04T23:12:35.122Z,3.60
2018-01-04T23:15:03.542Z,3.27
2018-01-04T23:17:34.205Z,3.90
2018-01-04T23:20:04.863Z,3.90
2018-01-04T23:22:37.873Z,3.03
2018-01-04T23:25:06.510Z,4.50
2018-01-04T23:27:35.009Z,3.57
2018-01-04T23:30:04.093Z,3.87
2018-01-04T23:32:33.873Z,4.10
2018-01-04T23:35:03.821Z,3.20
2018-01-04T23:37:33.926Z,3.30
2018-01-04T23:40:01.597Z,2.60
2018-01-04T23:42:29.289Z,3.33
2018-01-04T23:45:02.573Z,3.10
2018-01-04T23:47:30.234Z,4.50
2018-01-04T23:49:58.770Z,3.27
2018-01-04T23:52:29.224Z,4.73
2018-01-04T23:54:56.829Z,3.87
2018-01-04T23:57:25.190Z,4.50
2018-01-04T23:59:52.759Z,3.10
